MSC Fabiola — A8VL5 — position and weather

sailwx.info

Track history (hours):
 
Tides and Currents Weather Stations Pressure Air Temp Water Temp Dewpoint Dewpoint Depression Visibility Wind Speed Wind Dir Waves Ship Positions

MSC Fabiola

Last reported at 2015-May-29 08:12 UTC. Time now 2015-May-29 22:29 UTC.
Position N 36°47' E 123°44'.

Length 366 m; draft 14.8 m.

Type: Ship. MMSI: 636092019.

Date/timePositionNaut miles runAvg speedWind from/ knotsBaromVisibWave heightAir tempDewpointWater temp
2015-May-29 08:12N 36°47' E 123°44'6616.7
2015-May-29 04:14N 37°46' E 123°07'25016.6
2015-May-28 13:12N 38°56' E 118°01'914.1
2015-May-28 12:33N 38°58' E 117°49'3 2.3
2015-May-28 11:28N 38°60' E 117°47'0 0.0
2015-May-28 10:22N 38°60' E 117°47'0 0.0
2015-May-28 09:16N 38°60' E 117°47'0 0.0
2015-May-28 08:23N 38°60' E 117°47'0 0.0
2015-May-28 07:28N 38°60' E 117°47'0 0.0
2015-May-28 06:23N 38°60' E 117°47'0 0.0
2015-May-28 05:24N 38°60' E 117°47'0 0.0
2015-May-28 04:29N 38°60' E 117°47'0 0.0
2015-May-28 03:29N 38°60' E 117°47'0 0.0
2015-May-28 02:28N 38°60' E 117°47'0 0.0
2015-May-28 01:22N 38°60' E 117°47'0 0.0
2015-May-28 00:22N 38°60' E 117°47'0 0.0
2015-May-27 23:28N 38°60' E 117°47'0 0.0
2015-May-27 22:17N 38°60' E 117°47'0 0.0
2015-May-27 21:29N 38°60' E 117°47'0 0.0
2015-May-27 20:29N 38°60' E 117°47'0 0.0
2015-May-27 19:11N 38°60' E 117°47'0 0.0
2015-May-27 18:23N 38°60' E 117°47'0 0.0
2015-May-27 17:29N 38°60' E 117°47'0 0.0
2015-May-27 16:29N 38°60' E 117°47'0 0.0
2015-May-27 15:23N 38°60' E 117°47'0 0.0
2015-May-27 14:23N 38°60' E 117°47'0 0.0
2015-May-27 13:23N 38°60' E 117°47'0 0.0
2015-May-27 12:23N 38°60' E 117°47'0 0.0
2015-May-27 11:29N 38°60' E 117°47'0 0.0
2015-May-27 10:29N 38°60' E 117°47'0 0.0
2015-May-27 09:29N 38°60' E 117°47'0 0.0
2015-May-27 08:17N 38°60' E 117°47'0 0.0
2015-May-27 07:33N 38°60' E 117°47'6 6.1
2015-May-27 06:33N 38°57' E 117°54'1010.2
2015-May-27 05:33N 38°56' E 118°07'17215.5
2015-May-26 18:28N 38°28' E 121°45'1617.8
2015-May-26 17:33N 38°44' E 121°49'1613.5
2015-May-26 16:23N 38°59' E 121°56'1 0.1
2015-May-25 22:14N 38°60' E 121°56'812.0
2015-May-25 21:33N 38°52' E 121°58'1613.7
2015-May-25 20:24N 38°41' E 122°13'1214.4
2015-May-25 19:33N 38°30' E 122°21'4915.6
2015-May-25 16:26N 38°00' E 123°10'1416.4
2015-May-25 15:33N 37°47' E 123°18'1818.3
2015-May-25 14:33N 37°29' E 123°18'1818.1
2015-May-25 13:33N 37°11' E 123°18'1818.2
2015-May-25 12:33N 36°53' E 123°18'1817.7
2015-May-25 11:33N 36°35' E 123°19'1616.3
2015-May-25 10:33N 36°22' E 123°06'1817.1
2015-May-25 09:32N 36°19' E 122°44'1717.2
2015-May-25 08:31N 36°13' E 122°25'1817.5
2015-May-25 07:28N 36°09' E 122°02'89 2.8
2015-May-23 23:27N 36°01' E 120°12'14 6.7
2015-May-23 21:18N 35°60' E 120°30'1418.4
2015-May-23 20:31N 35°56' E 120°47'11111.1
2015-May-23 10:30N 34°43' E 122°30'2311.5
2015-May-23 08:32N 34°30' E 122°52'16313.4
2015-May-22 20:21N 31°55' E 123°54'7417.3
2015-May-22 16:06N 30°42' E 123°52'1217.1
2015-May-22 15:24N 30°30' E 123°52'49317.1
2015-May-21 10:31N 23°50' E 118°26'1617.0
2015-May-21 09:33N 23°41' E 118°12'1816.0
2015-May-21 08:27N 23°29' E 117°57'19916.5
2015-May-20 20:25N 22°07' E 114°40'1719.9
2015-May-20 19:33N 22°07' E 114°22'1712.7
2015-May-20 18:14N 22°16' E 114°06'1311.5
2015-May-20 17:05N 22°23' E 113°54'3 6.3
2015-May-20 16:33N 22°26' E 113°53'2 0.1
2015-May-19 23:19N 22°28' E 113°52'4 5.1
2015-May-19 22:33N 22°24' E 113°53'11 9.7
2015-May-19 21:25N 22°20' E 114°05'1410.2
2015-May-19 20:04N 22°09' E 114°14'610.0
2015-May-19 19:31N 22°09' E 114°20'1111.3
2015-May-19 18:33N 21°59' E 114°26'  
Track history (hours):
 
Tides and Currents Weather Stations Pressure Air Temp Water Temp Dewpoint Dewpoint Depression Visibility Wind Speed Wind Dir Waves Ship Positions

MSC Fabiola

Last reported at 2015-May-29 08:12 UTC. Time now 2015-May-29 22:29 UTC.
Position N 36°47' E 123°44'.

Length 366 m; draft 14.8 m.

Type: Ship. MMSI: 636092019.

Date/timePositionNaut miles runAvg speedWind from/ knotsBaromVisibWave heightAir tempDewpointWater temp
2015-May-29 08:12N 36°47' E 123°44'6616.7
2015-May-29 04:14N 37°46' E 123°07'25016.6
2015-May-28 13:12N 38°56' E 118°01'914.1
2015-May-28 12:33N 38°58' E 117°49'3 2.3
2015-May-28 11:28N 38°60' E 117°47'0 0.0
2015-May-28 10:22N 38°60' E 117°47'0 0.0
2015-May-28 09:16N 38°60' E 117°47'0 0.0
2015-May-28 08:23N 38°60' E 117°47'0 0.0
2015-May-28 07:28N 38°60' E 117°47'0 0.0
2015-May-28 06:23N 38°60' E 117°47'0 0.0
2015-May-28 05:24N 38°60' E 117°47'0 0.0
2015-May-28 04:29N 38°60' E 117°47'0 0.0
2015-May-28 03:29N 38°60' E 117°47'0 0.0
2015-May-28 02:28N 38°60' E 117°47'0 0.0
2015-May-28 01:22N 38°60' E 117°47'0 0.0
2015-May-28 00:22N 38°60' E 117°47'0 0.0
2015-May-27 23:28N 38°60' E 117°47'0 0.0
2015-May-27 22:17N 38°60' E 117°47'0 0.0
2015-May-27 21:29N 38°60' E 117°47'0 0.0
2015-May-27 20:29N 38°60' E 117°47'0 0.0
2015-May-27 19:11N 38°60' E 117°47'0 0.0
2015-May-27 18:23N 38°60' E 117°47'0 0.0
2015-May-27 17:29N 38°60' E 117°47'0 0.0
2015-May-27 16:29N 38°60' E 117°47'0 0.0
2015-May-27 15:23N 38°60' E 117°47'0 0.0
2015-May-27 14:23N 38°60' E 117°47'0 0.0
2015-May-27 13:23N 38°60' E 117°47'0 0.0
2015-May-27 12:23N 38°60' E 117°47'0 0.0
2015-May-27 11:29N 38°60' E 117°47'0 0.0
2015-May-27 10:29N 38°60' E 117°47'0 0.0
2015-May-27 09:29N 38°60' E 117°47'0 0.0
2015-May-27 08:17N 38°60' E 117°47'0 0.0
2015-May-27 07:33N 38°60' E 117°47'6 6.1
2015-May-27 06:33N 38°57' E 117°54'1010.2
2015-May-27 05:33N 38°56' E 118°07'17215.5
2015-May-26 18:28N 38°28' E 121°45'1617.8
2015-May-26 17:33N 38°44' E 121°49'1613.5
2015-May-26 16:23N 38°59' E 121°56'1 0.1
2015-May-25 22:14N 38°60' E 121°56'812.0
2015-May-25 21:33N 38°52' E 121°58'1613.7
2015-May-25 20:24N 38°41' E 122°13'1214.4
2015-May-25 19:33N 38°30' E 122°21'4915.6
2015-May-25 16:26N 38°00' E 123°10'1416.4
2015-May-25 15:33N 37°47' E 123°18'1818.3
2015-May-25 14:33N 37°29' E 123°18'1818.1
2015-May-25 13:33N 37°11' E 123°18'1818.2
2015-May-25 12:33N 36°53' E 123°18'1817.7
2015-May-25 11:33N 36°35' E 123°19'1616.3
2015-May-25 10:33N 36°22' E 123°06'1817.1
2015-May-25 09:32N 36°19' E 122°44'1717.2
2015-May-25 08:31N 36°13' E 122°25'1817.5
2015-May-25 07:28N 36°09' E 122°02'89 2.8
2015-May-23 23:27N 36°01' E 120°12'14 6.7
2015-May-23 21:18N 35°60' E 120°30'1418.4
2015-May-23 20:31N 35°56' E 120°47'11111.1
2015-May-23 10:30N 34°43' E 122°30'2311.5
2015-May-23 08:32N 34°30' E 122°52'16313.4
2015-May-22 20:21N 31°55' E 123°54'7417.3
2015-May-22 16:06N 30°42' E 123°52'1217.1
2015-May-22 15:24N 30°30' E 123°52'49317.1
2015-May-21 10:31N 23°50' E 118°26'1617.0
2015-May-21 09:33N 23°41' E 118°12'1816.0
2015-May-21 08:27N 23°29' E 117°57'19916.5
2015-May-20 20:25N 22°07' E 114°40'1719.9
2015-May-20 19:33N 22°07' E 114°22'1712.7
2015-May-20 18:14N 22°16' E 114°06'1311.5
2015-May-20 17:05N 22°23' E 113°54'3 6.3
2015-May-20 16:33N 22°26' E 113°53'2 0.1
2015-May-19 23:19N 22°28' E 113°52'4 5.1
2015-May-19 22:33N 22°24' E 113°53'11 9.7
2015-May-19 21:25N 22°20' E 114°05'1410.2
2015-May-19 20:04N 22°09' E 114°14'610.0
2015-May-19 19:31N 22°09' E 114°20'1111.3
2015-May-19 18:33N 21°59' E 114°26'  

Dump ship's entire track history